Time;durP1;ratioP1;P1;durP2;ratioP2;P2;SDS_P1;SDS_P2;PMS_P1;PMS_P2;Temp;Humidity;BMP_temperature;BMP_pressure;BME280_temperature;BME280_humidity;BME280_pressure;Samples;Min_cycle;Max_cycle;Signal;HPM_P1;HPM_P2
2022/11/23 00:02:13;;;;;;;31.88;16.65;;;;;;;6.09;81.75;93822.75;5015264;28;20046;-81
2022/11/23 00:04:39;;;;;;;25.58;16.00;;;;;;;6.98;81.76;93942.47;4997446;28;20534;-81
2022/11/23 00:07:04;;;;;;;27.30;16.98;;;;;;;7.30;82.39;93999.84;5014658;28;20110;-81
2022/11/23 00:09:29;;;;;;;25.15;14.60;;;;;;;7.30;82.22;94007.75;4996967;28;20432;-81
2022/11/23 00:11:55;;;;;;;33.25;17.63;;;;;;;6.41;82.21;93863.47;4996944;28;20125;-81
2022/11/23 00:14:20;;;;;;;27.92;15.60;;;;;;;6.84;82.50;93944.19;5015003;28;20046;-80
2022/11/23 00:16:46;;;;;;;29.92;16.73;;;;;;;6.80;81.98;93960.81;4996822;28;20121;-80
2022/11/23 00:19:11;;;;;;;30.05;17.35;;;;;;;6.17;82.62;93866.91;5014011;28;20491;-81
2022/11/23 00:21:37;;;;;;;30.55;18.15;;;;;;;6.61;82.24;93931.78;5015690;28;20129;-80
2022/11/23 00:24:02;;;;;;;32.00;17.35;;;;;;;7.00;82.71;93996.75;5034342;28;20069;-81
2022/11/23 00:26:28;;;;;;;26.80;16.40;;;;;;;5.97;82.54;93834.69;5033863;28;20122;-81
2022/11/23 00:28:53;;;;;;;29.30;16.73;;;;;;;6.14;83.42;93901.66;5034471;28;20063;-81
2022/11/23 00:31:20;;;;;;;27.63;16.90;;;;;;;6.15;83.64;93889.28;5035853;28;20045;-81
2022/11/23 00:33:51;;;;;;;29.58;17.05;;;;;;;6.14;83.90;93864.03;5034605;28;20041;-81
2022/11/23 00:36:17;;;;;;;30.23;17.52;;;;;;;6.42;83.72;93896.66;5038978;28;20531;-81
2022/11/23 00:38:43;;;;;;;27.63;17.60;;;;;;;5.48;84.23;93769.06;5017185;28;20101;-81
2022/11/23 00:41:15;;;;;;;31.88;18.52;;;;;;;6.33;84.86;93930.72;5023177;28;20087;-81
2022/11/23 00:43:40;;;;;;;29.88;16.98;;;;;;;6.62;84.69;93945.75;5025444;28;20155;-81
2022/11/23 00:46:23;;;;;;;32.20;18.52;;;;;;;6.56;84.72;93937.88;5027622;28;20607;-81
2022/11/23 00:48:51;;;;;;;32.40;17.92;;;;;;;6.51;84.71;93916.84;5016738;28;20111;-81
2022/11/23 00:51:22;;;;;;;36.53;17.83;;;;;;;6.17;84.62;93868.75;5049187;28;20049;-81
2022/11/23 00:53:51;;;;;;;32.97;19.00;;;;;;;6.90;84.77;94008.97;5051332;28;20041;-81
2022/11/23 00:56:17;;;;;;;32.33;19.40;;;;;;;6.09;85.05;93887.75;5034663;28;20068;-81
2022/11/23 00:58:50;;;;;;;33.65;19.17;;;;;;;6.55;85.44;93935.53;5052933;28;20045;-82
2022/11/23 01:01:16;;;;;;;39.17;20.90;;;;;;;6.04;84.47;93835.94;5015799;28;20733;-83
2022/11/23 01:03:47;;;;;;;36.47;17.67;;;;;;;6.73;85.21;93953.25;5027895;28;20075;-84
2022/11/23 01:06:16;;;;;;;34.08;20.35;;;;;;;6.70;85.11;93938.03;5032111;28;20068;-84
2022/11/23 01:08:41;;;;;;;31.05;18.65;;;;;;;6.35;84.92;93865.41;5031864;28;20068;-84
2022/11/23 01:11:11;;;;;;;38.58;18.95;;;;;;;6.01;85.33;93825.19;5031352;28;20365;-83
2022/11/23 01:13:39;;;;;;;34.40;20.60;;;;;;;6.15;85.65;93865.59;5024049;28;20064;-83
2022/11/23 01:16:20;;;;;;;38.20;19.92;;;;;;;7.06;85.64;93996.41;5051532;28;20423;-83
2022/11/23 01:18:46;;;;;;;38.28;19.27;;;;;;;6.00;85.98;93842.03;5051092;28;20040;-84
2022/11/23 01:21:11;;;;;;;31.60;17.90;;;;;;;6.17;86.47;93876.63;5033291;28;20591;-84
2022/11/23 01:23:37;;;;;;;37.08;18.55;;;;;;;6.82;86.16;93954.22;5033196;28;20538;-82
2022/11/23 01:26:08;;;;;;;35.30;19.30;;;;;;;7.08;86.13;93983.75;5051253;28;20083;-84
2022/11/23 01:28:34;;;;;;;;;;;;;;;7.11;85.77;93979.75;5033767;28;20043;-83
2022/11/23 01:31:05;;;;;;;34.70;19.05;;;;;;;6.69;85.80;93904.03;5050577;28;19925;-84
2022/11/23 01:33:30;;;;;;;33.40;18.80;;;;;;;6.49;86.47;93903.16;5050979;28;20111;-84
2022/11/23 01:35:56;;;;;;;34.25;18.98;;;;;;;7.12;86.33;93989.22;5050712;28;20124;-84
2022/11/23 01:38:21;;;;;;;37.22;18.98;;;;;;;6.49;86.20;93897.13;5032881;28;20044;-83
2022/11/23 01:40:47;;;;;;;33.80;20.38;;;;;;;7.11;86.20;94006.09;5029366;28;20041;-84
2022/11/23 01:43:15;;;;;;;35.45;20.30;;;;;;;6.92;87.36;94001.56;5022468;28;20048;-84
2022/11/23 01:45:56;;;;;;;46.13;23.48;;;;;;;6.91;87.76;93983.38;5015141;28;20037;-84
2022/11/23 01:48:36;;;;;;;36.05;22.02;;;;;;;6.99;87.93;93966.97;5034499;28;20046;-84
2022/11/23 01:51:05;;;;;;;43.03;22.73;;;;;;;6.98;87.31;93968.03;5031467;28;20044;-83
2022/11/23 01:53:32;;;;;;;43.63;22.38;;;;;;;6.23;88.15;93866.84;5036347;28;20087;-84
2022/11/23 01:56:00;;;;;;;39.05;21.58;;;;;;;6.19;88.05;93888.44;5035551;28;20094;-84
2022/11/23 01:58:30;;;;;;;48.78;22.45;;;;;;;5.94;88.51;93851.06;5044408;28;20044;-84
2022/11/23 02:00:56;;;;;;;47.72;21.98;;;;;;;6.65;88.23;93945.16;5028042;28;20427;-83
2022/11/23 02:03:23;;;;;;;41.42;22.73;;;;;;;6.98;88.68;93995.19;5037598;28;20041;-84
2022/11/23 02:05:53;;;;;;;37.83;22.25;;;;;;;6.19;88.25;93850.81;5020585;28;20096;-84
2022/11/23 02:08:19;;;;;;;39.00;21.58;;;;;;;6.35;87.84;93875.13;5014292;28;20099;-84
2022/11/23 02:10:45;;;;;;;36.63;22.00;;;;;;;6.25;87.49;93847.09;5015796;28;20133;-84
2022/11/23 02:13:14;;;;;;;40.83;23.42;;;;;;;6.73;87.47;93899.78;5034393;28;20171;-84
2022/11/23 02:15:40;;;;;;;41.22;22.02;;;;;;;7.13;87.83;93957.31;5012590;28;20053;-83
2022/11/23 02:18:13;;;;;;;42.72;22.95;;;;;;;7.14;87.97;93958.88;5013111;28;20041;-84
2022/11/23 02:20:38;;;;;;;35.72;21.90;;;;;;;6.36;88.57;93868.81;5038588;28;20037;-83
2022/11/23 02:23:11;;;;;;;34.67;20.88;;;;;;;6.32;88.09;93841.47;5029826;28;20045;-83
2022/11/23 02:25:43;;;;;;;37.33;22.10;;;;;;;7.17;87.93;93963.59;5038147;28;20049;-83
2022/11/23 02:28:23;;;;;;;43.22;22.15;;;;;;;6.82;87.88;93921.81;5019353;28;20046;-84
2022/11/23 02:30:52;;;;;;;42.53;22.60;;;;;;;6.85;88.44;93914.16;5030026;28;20520;-82
2022/11/23 02:33:17;;;;;;;41.67;23.35;;;;;;;7.14;88.30;93956.25;5029914;28;20052;-84
2022/11/23 02:35:56;;;;;;;39.95;22.83;;;;;;;7.11;88.23;93954.16;5014408;28;20041;-83
2022/11/23 02:38:25;;;;;;;37.38;22.35;;;;;;;7.18;88.11;93944.06;5030011;28;20089;-84
2022/11/23 02:40:50;;;;;;;38.75;21.73;;;;;;;6.42;88.40;93833.47;5011237;28;20049;-83
2022/11/23 02:43:16;;;;;;;40.88;20.83;;;;;;;6.65;88.43;93877.47;5035480;28;20037;-83
2022/11/23 02:45:49;;;;;;;36.25;19.65;;;;;;;6.41;88.79;93827.41;5023143;28;20049;-84
2022/11/23 02:48:15;;;;;;;38.92;22.00;;;;;;;6.75;88.74;93860.75;5025189;28;20519;-84
2022/11/23 02:50:41;;;;;;;34.25;19.48;;;;;;;6.77;88.60;93864.69;5043171;28;20041;-82
2022/11/23 02:53:06;;;;;;;36.72;19.65;;;;;;;6.49;88.33;93847.06;5020859;28;20055;-81
2022/11/23 02:55:31;;;;;;;35.60;20.40;;;;;;;6.60;88.23;93864.34;5042380;28;20534;-81
2022/11/23 02:57:57;;;;;;;35.60;20.17;;;;;;;6.78;88.06;93862.84;5040820;28;20049;-81
2022/11/23 03:00:23;;;;;;;36.45;20.25;;;;;;;6.51;88.78;93851.00;5040715;28;20037;-81
2022/11/23 03:02:48;;;;;;;36.33;19.08;;;;;;;5.87;88.70;93776.88;5032706;28;20052;-81
2022/11/23 03:05:14;;;;;;;31.85;19.63;;;;;;;6.78;88.54;93921.59;5031670;28;20440;-81
2022/11/23 03:07:39;;;;;;;34.88;19.33;;;;;;;5.86;88.68;93791.88;5029057;28;20048;-81
2022/11/23 03:10:05;;;;;;;35.58;19.92;;;;;;;6.23;89.12;93812.34;5043634;28;20188;-81
2022/11/23 03:12:31;;;;;;;34.25;19.98;;;;;;;5.91;90.03;93749.75;5042225;28;20049;-81
2022/11/23 03:14:56;;;;;;;35.83;20.02;;;;;;;5.92;89.73;93790.00;5043825;28;20203;-81
2022/11/23 03:17:22;;;;;;;36.42;20.95;;;;;;;5.78;90.82;93822.22;5028494;28;20057;-81
2022/11/23 03:19:47;;;;;;;30.58;16.67;;;;;;;5.62;92.62;93814.72;5047413;28;20053;-81
2022/11/23 03:22:12;;;;;;;29.60;14.45;;;;;;;5.39;91.79;93758.34;5031083;28;20138;-81
2022/11/23 03:24:38;;;;;;;29.65;15.77;;;;;;;6.20;92.21;93908.44;5031132;28;20107;-81
2022/11/23 03:27:03;;;;;;;31.27;18.00;;;;;;;5.63;91.41;93805.75;5049120;28;20045;-81
2022/11/23 03:29:29;;;;;;;30.15;16.30;;;;;;;5.68;91.67;93789.94;5026993;28;20041;-81
2022/11/23 03:31:54;;;;;;;28.30;17.10;;;;;;;5.69;91.44;93807.28;5017651;28;20101;-81
2022/11/23 03:34:21;;;;;;;29.55;16.92;;;;;;;5.61;90.91;93786.84;5019806;28;20041;-81
2022/11/23 03:36:47;;;;;;;31.98;17.08;;;;;;;6.00;90.99;93806.00;5032401;28;20033;-81
2022/11/23 03:39:12;;;;;;;31.90;16.35;;;;;;;5.71;90.25;93745.47;5015316;28;20046;-81
2022/11/23 03:41:37;;;;;;;29.30;17.58;;;;;;;5.65;90.21;93727.34;5025575;28;20038;-81
2022/11/23 03:44:03;;;;;;;35.67;17.77;;;;;;;5.80;90.36;93767.44;5042565;28;20045;-81
2022/11/23 03:46:29;;;;;;;28.25;17.00;;;;;;;5.75;90.83;93778.03;5044839;28;20033;-82
2022/11/23 03:48:54;;;;;;;26.00;15.55;;;;;;;5.49;90.60;93736.47;5014831;28;20106;-81
2022/11/23 03:51:20;;;;;;;28.58;15.70;;;;;;;6.32;90.44;93830.94;5013279;28;20034;-81
2022/11/23 03:53:45;;;;;;;26.55;16.48;;;;;;;5.49;90.42;93703.06;4999449;28;20047;-81
2022/11/23 03:56:11;;;;;;;27.80;16.55;;;;;;;5.14;90.39;93659.47;5035162;28;20491;-81
2022/11/23 03:58:36;;;;;;;28.58;16.73;;;;;;;5.40;90.49;93697.63;5047680;28;20091;-81
2022/11/23 04:01:01;;;;;;;31.77;17.50;;;;;;;5.82;90.80;93744.28;5032532;28;20037;-81
2022/11/23 04:03:27;;;;;;;26.15;14.82;;;;;;;6.54;90.19;93829.38;5032555;28;20040;-81
2022/11/23 04:05:52;;;;;;;25.73;15.45;;;;;;;6.48;91.06;93851.59;5032522;28;20041;-81
2022/11/23 04:08:18;;;;;;;29.38;16.02;;;;;;;5.79;90.59;93749.34;5040348;28;20068;-81
2022/11/23 04:10:43;;;;;;;35.58;17.75;;;;;;;5.81;90.59;93744.56;5043824;28;20056;-81
2022/11/23 04:13:08;;;;;;;28.63;15.10;;;;;;;5.88;90.80;93791.63;5028931;28;20041;-81
2022/11/23 04:15:34;;;;;;;28.10;15.52;;;;;;;6.17;91.24;93830.03;5037118;28;20041;-81
2022/11/23 04:17:59;;;;;;;28.00;16.23;;;;;;;5.98;91.24;93821.25;5031593;28;20139;-81
2022/11/23 04:20:25;;;;;;;29.48;16.13;;;;;;;6.33;91.39;93875.41;5038030;28;20053;-81
2022/11/23 04:22:50;;;;;;;26.45;16.20;;;;;;;5.75;91.06;93782.50;5004297;28;20090;-81
2022/11/23 04:25:16;;;;;;;26.90;14.95;;;;;;;6.19;91.30;93848.97;5036225;28;20095;-81
2022/11/23 04:27:42;;;;;;;29.80;15.90;;;;;;;6.50;91.28;93865.25;5036105;28;20041;-81
2022/11/23 04:30:08;;;;;;;33.83;17.33;;;;;;;5.56;90.89;93716.66;5038086;28;20034;-81
2022/11/23 04:32:33;;;;;;;28.48;14.98;;;;;;;5.91;90.78;93788.44;5040675;28;20084;-81
2022/11/23 04:35:00;;;;;;;24.80;15.27;;;;;;;6.50;90.86;93861.81;5043365;28;20092;-81
2022/11/23 04:37:25;;;;;;;29.25;16.52;;;;;;;5.89;91.36;93793.19;5033333;28;20052;-81
2022/11/23 04:39:50;;;;;;;33.15;19.17;;;;;;;6.22;91.35;93846.84;5035928;28;20057;-81
2022/11/23 04:42:16;;;;;;;34.42;18.23;;;;;;;6.14;91.15;93832.44;5022517;28;20483;-81
2022/11/23 04:44:41;;;;;;;33.78;17.58;;;;;;;6.02;91.13;93798.59;5042626;28;20366;-81
2022/11/23 04:47:08;;;;;;;29.73;18.45;;;;;;;5.56;92.27;93748.22;5057993;28;20044;-81
2022/11/23 04:49:33;;;;;;;33.53;17.58;;;;;;;5.41;91.59;93740.47;5054447;28;20045;-81
2022/11/23 04:51:59;;;;;;;27.42;17.80;;;;;;;5.87;91.83;93800.56;5044967;28;20496;-81
2022/11/23 04:54:24;;;;;;;35.55;19.70;;;;;;;5.95;91.76;93832.34;5035883;28;20045;-81
2022/11/23 04:56:49;;;;;;;32.53;18.83;;;;;;;6.11;91.66;93846.94;5038862;28;20103;-81
2022/11/23 04:59:15;;;;;;;34.90;17.83;;;;;;;6.11;91.85;93867.97;5035691;28;20044;-81
2022/11/23 05:01:40;;;;;;;31.25;17.92;;;;;;;6.24;92.75;93890.25;5042851;28;20033;-81
2022/11/23 05:04:06;;;;;;;40.67;18.73;;;;;;;5.94;92.81;93854.47;5044613;28;20041;-81
2022/11/23 05:06:32;;;;;;;36.30;18.55;;;;;;;6.07;92.64;93871.47;5016923;28;20033;-81
2022/11/23 05:08:57;;;;;;;34.05;19.13;;;;;;;5.98;91.92;93842.31;5019474;28;20048;-81
2022/11/23 05:11:23;;;;;;;34.72;18.70;;;;;;;6.18;91.63;93859.75;5027114;28;20052;-81
2022/11/23 05:13:48;;;;;;;32.88;21.25;;;;;;;5.93;91.91;93817.91;5032773;28;20422;-81
2022/11/23 05:16:13;;;;;;;29.85;18.15;;;;;;;6.23;92.48;93866.84;5033980;28;20052;-82
2022/11/23 05:18:39;;;;;;;29.33;18.70;;;;;;;6.33;92.16;93878.03;5039531;28;20044;-81
2022/11/23 05:21:04;;;;;;;28.10;17.50;;;;;;;6.58;91.66;93927.06;5037397;28;20481;-81
2022/11/23 05:23:30;;;;;;;29.08;17.48;;;;;;;6.06;92.06;93818.03;5009479;28;20041;-82
2022/11/23 05:25:55;;;;;;;36.35;18.45;;;;;;;5.88;91.03;93781.09;5021891;28;20033;-82
2022/11/23 05:28:22;;;;;;;33.10;19.17;;;;;;;6.57;91.07;93883.34;5032796;28;20041;-81
2022/11/23 05:30:47;;;;;;;31.85;18.08;;;;;;;6.80;90.46;93885.19;5011286;28;20586;-82
2022/11/23 05:33:13;;;;;;;29.00;17.52;;;;;;;6.83;90.76;93879.38;5007363;28;20072;-82
2022/11/23 05:35:39;;;;;;;29.08;18.38;;;;;;;6.21;90.77;93803.94;5032895;28;20079;-82
2022/11/23 05:38:05;;;;;;;31.60;21.00;;;;;;;6.06;90.85;93788.28;5042475;28;20061;-82
2022/11/23 05:40:31;;;;;;;29.90;18.38;;;;;;;6.77;91.21;93896.31;5037323;28;20309;-83
2022/11/23 05:42:57;;;;;;;36.70;20.23;;;;;;;6.68;91.14;93870.84;5033951;28;20045;-82
2022/11/23 05:45:24;;;;;;;41.28;23.10;;;;;;;6.62;90.69;93830.63;5038764;28;20049;-83
2022/11/23 05:47:51;;;;;;;38.45;21.58;;;;;;;5.97;90.51;93776.78;5022111;28;20045;-82
2022/11/23 05:50:16;;;;;;;40.13;22.23;;;;;;;5.90;92.04;93795.56;5019941;28;20047;-83
2022/11/23 05:52:41;;;;;;;38.08;23.48;;;;;;;5.75;91.99;93764.09;5032965;28;20041;-82
2022/11/23 05:55:07;;;;;;;40.97;23.08;;;;;;;6.02;91.77;93795.19;5030479;28;20179;-82
2022/11/23 05:57:32;;;;;;;44.83;23.95;;;;;;;6.07;91.33;93801.19;5029093;28;20435;-82
2022/11/23 05:59:58;;;;;;;40.22;24.00;;;;;;;6.07;91.55;93809.06;5034183;28;20481;-82
2022/11/23 06:02:23;;;;;;;47.67;23.95;;;;;;;6.73;91.71;93892.66;5027125;28;20045;-82
2022/11/23 06:04:49;;;;;;;41.38;23.42;;;;;;;6.18;91.43;93791.31;5027462;28;20056;-82
2022/11/23 06:07:14;;;;;;;39.63;23.73;;;;;;;6.00;91.31;93752.56;5032905;28;20044;-83
2022/11/23 06:09:39;;;;;;;45.30;26.60;;;;;;;6.31;90.53;93781.97;5012933;28;20742;-82
2022/11/23 06:12:05;;;;;;;42.25;24.42;;;;;;;6.89;90.71;93888.00;5003885;28;20107;-83
2022/11/23 06:14:30;;;;;;;41.35;23.80;;;;;;;6.28;90.79;93787.81;5021518;28;20739;-83
2022/11/23 06:16:56;;;;;;;51.22;26.80;;;;;;;7.17;90.65;93902.94;5028238;28;20578;-82
2022/11/23 06:19:21;;;;;;;38.25;24.95;;;;;;;6.29;90.08;93769.09;5017631;28;20041;-84
2022/11/23 06:21:47;;;;;;;37.70;23.33;;;;;;;6.68;90.35;93818.94;4997023;28;20037;-83
2022/11/23 06:24:13;;;;;;;39.05;22.42;;;;;;;6.50;90.68;93812.56;4983594;28;20064;-83
2022/11/23 06:26:38;;;;;;;36.10;22.65;;;;;;;6.41;90.97;93798.44;4987573;28;20041;-82
2022/11/23 06:29:04;;;;;;;43.25;27.48;;;;;;;6.05;91.87;93786.72;4983894;28;20038;-83
2022/11/23 06:31:29;;;;;;;41.33;26.65;;;;;;;6.22;91.79;93807.34;4982927;28;20107;-83
2022/11/23 06:33:54;;;;;;;43.72;27.48;;;;;;;7.09;91.54;93914.16;5006423;28;20571;-83
2022/11/23 06:36:20;;;;;;;45.28;27.17;;;;;;;6.87;91.56;93863.78;5008839;28;20045;-82
2022/11/23 06:38:45;;;;;;;43.17;26.77;;;;;;;6.33;91.29;93788.53;4990238;28;20045;-83
2022/11/23 06:41:11;;;;;;;45.47;26.67;;;;;;;6.75;91.04;93844.94;5007934;28;20969;-82
2022/11/23 06:43:36;;;;;;;50.03;29.13;;;;;;;6.97;90.36;93892.66;4990033;28;20041;-83
2022/11/23 06:46:04;;;;;;;44.00;26.85;;;;;;;6.66;91.41;93825.56;5002346;28;20105;-82
2022/11/23 06:48:29;;;;;;;41.85;27.35;;;;;;;6.69;90.45;93831.06;4991302;28;20045;-83
2022/11/23 06:50:57;;;;;;;50.03;29.15;;;;;;;7.34;90.86;93921.72;5014143;28;20034;-83
2022/11/23 06:53:23;;;;;;;44.47;27.92;;;;;;;7.24;90.47;93919.22;4993132;28;20886;-83
2022/11/23 06:55:48;;;;;;;48.17;28.65;;;;;;;6.70;90.52;93803.66;4989885;28;20044;-82
2022/11/23 06:58:14;;;;;;;44.05;28.52;;;;;;;7.33;90.06;93909.59;5007106;28;20041;-82
2022/11/23 07:00:39;;;;;;;40.05;26.83;;;;;;;7.01;90.70;93880.50;5004951;28;20050;-83
2022/11/23 07:03:08;;;;;;;44.90;28.63;;;;;;;7.45;91.16;93930.31;5005752;28;20048;-83
2022/11/23 07:05:33;;;;;;;45.47;28.25;;;;;;;7.29;91.52;93892.00;4981890;28;20062;-82
2022/11/23 07:07:58;;;;;;;42.35;28.10;;;;;;;6.87;90.66;93798.66;4982897;28;20522;-83
2022/11/23 07:10:24;;;;;;;45.88;27.83;;;;;;;7.17;89.99;93837.03;4985021;28;20045;-83
2022/11/23 07:12:50;;;;;;;44.50;28.27;;;;;;;6.54;90.27;93753.00;5000610;28;20042;-83
2022/11/23 07:15:15;;;;;;;44.50;27.92;;;;;;;7.60;90.34;93895.00;5003647;28;20042;-83
2022/11/23 07:17:43;;;;;;;46.22;28.00;;;;;;;6.95;90.27;93786.72;5006467;28;20145;-83
2022/11/23 07:20:10;;;;;;;45.45;27.13;;;;;;;8.02;89.95;93923.16;4989678;28;20069;-83
2022/11/23 07:22:35;;;;;;;47.72;30.98;;;;;;;7.33;88.94;93819.94;5029318;28;20107;-82
2022/11/23 07:25:01;;;;;;;43.20;28.90;;;;;;;7.59;89.12;93856.50;5044918;28;20037;-83
2022/11/23 07:27:27;;;;;;;50.13;27.40;;;;;;;7.66;89.16;93867.47;5016367;28;20045;-83
2022/11/23 07:29:52;;;;;;;45.30;28.42;;;;;;;7.59;89.34;93840.66;5028769;28;20045;-83
2022/11/23 07:32:18;;;;;;;44.40;29.15;;;;;;;7.29;88.88;93840.03;5025107;28;20140;-83
2022/11/23 07:34:43;;;;;;;49.53;29.98;;;;;;;7.57;89.36;93892.94;5016557;28;20357;-82
2022/11/23 07:37:09;;;;;;;44.63;30.85;;;;;;;7.38;90.00;93850.75;5014809;28;20088;-84
2022/11/23 07:39:35;;;;;;;48.78;30.23;;;;;;;7.14;89.21;93815.72;5015862;28;20976;-83
2022/11/23 07:42:00;;;;;;;51.10;29.83;;;;;;;7.42;89.84;93864.13;5013045;28;20052;-83
2022/11/23 07:44:25;;;;;;;52.88;31.58;;;;;;;7.19;90.27;93826.19;5024139;28;20136;-82
2022/11/23 07:46:54;;;;;;;50.10;30.88;;;;;;;7.21;90.51;93790.59;5012587;28;20060;-86
2022/11/23 07:49:19;;;;;;;51.72;31.33;;;;;;;8.14;89.88;93921.66;5021134;28;20476;-83
2022/11/23 07:51:45;;;;;;;47.25;28.85;;;;;;;7.30;88.89;93825.78;5009480;28;20083;-82
2022/11/23 07:54:10;;;;;;;49.97;30.05;;;;;;;7.69;89.42;93880.09;5007663;28;20100;-80
2022/11/23 07:56:36;;;;;;;45.35;27.80;;;;;;;8.01;89.77;93924.25;5008496;28;20052;-82
2022/11/23 07:59:01;;;;;;;41.05;26.95;;;;;;;7.70;89.81;93865.84;5032227;28;20044;-83
2022/11/23 08:01:26;;;;;;;42.90;28.15;;;;;;;7.98;89.07;93901.84;5032555;28;20278;-84
2022/11/23 08:03:52;;;;;;;43.03;27.85;;;;;;;7.74;88.68;93851.00;5022433;28;20054;-85
2022/11/23 08:06:17;;;;;;;55.60;31.70;;;;;;;7.49;88.90;93817.06;5030584;28;20056;-83
2022/11/23 08:08:43;;;;;;;43.20;30.20;;;;;;;7.95;88.73;93880.50;5030973;28;20037;-86
2022/11/23 08:11:09;;;;;;;44.40;29.55;;;;;;;7.87;88.27;93841.56;5010742;28;20057;-81
2022/11/23 08:13:38;;;;;;;42.10;29.27;;;;;;;7.57;87.93;93798.75;5009701;28;20056;-82
2022/11/23 08:16:04;;;;;;;41.58;27.92;;;;;;;8.18;87.42;93863.75;5028698;28;20053;-83
2022/11/23 08:18:29;;;;;;;41.40;27.17;;;;;;;8.03;86.66;93846.31;5027260;28;20045;-81
2022/11/23 08:20:59;;;;;;;41.88;26.40;;;;;;;8.69;86.99;93905.19;5012576;28;20171;-80
2022/11/23 08:23:24;;;;;;;42.72;26.95;;;;;;;7.53;86.09;93726.53;5027679;28;20429;-81
2022/11/23 08:25:50;;;;;;;41.05;28.77;;;;;;;8.09;86.51;93818.72;5029284;28;20048;-80
2022/11/23 08:28:15;;;;;;;46.13;28.73;;;;;;;8.10;86.39;93809.75;5027504;28;20048;-80
2022/11/23 08:30:40;;;;;;;43.25;28.25;;;;;;;7.99;86.17;93823.41;5011012;28;20053;-80
2022/11/23 08:33:07;;;;;;;45.38;25.48;;;;;;;8.09;86.19;93813.44;5027962;28;20042;-80
2022/11/23 08:35:35;;;;;;;40.22;26.75;;;;;;;8.24;86.59;93840.69;5024013;28;20033;-80
2022/11/23 08:38:00;;;;;;;42.25;28.27;;;;;;;8.68;86.58;93914.19;5025989;28;20041;-80
2022/11/23 08:40:26;;;;;;;42.47;28.65;;;;;;;8.80;86.66;93917.91;5034859;28;20087;-79
2022/11/23 08:42:51;;;;;;;50.45;28.88;;;;;;;8.09;86.56;93804.75;5024834;28;20135;-80
2022/11/23 08:45:17;;;;;;;45.67;30.20;;;;;;;7.84;86.73;93755.84;5028545;28;20038;-80
2022/11/23 08:47:42;;;;;;;52.85;29.80;;;;;;;8.90;86.43;93916.94;5017133;28;20044;-80
2022/11/23 08:50:08;;;;;;;43.45;27.63;;;;;;;8.52;87.11;93866.09;5025254;28;20128;-81
2022/11/23 08:52:34;;;;;;;42.15;27.40;;;;;;;8.18;87.39;93813.56;5026424;28;20085;-82
2022/11/23 08:55:00;;;;;;;44.90;27.60;;;;;;;8.13;87.20;93789.91;5005527;28;20029;-82
2022/11/23 08:57:26;;;;;;;40.47;25.45;;;;;;;9.08;87.05;93917.94;5010380;28;20051;-81
2022/11/23 08:59:51;;;;;;;40.17;25.70;;;;;;;8.90;87.04;93874.66;5026389;28;20053;-81
2022/11/23 09:02:17;;;;;;;40.28;24.42;;;;;;;7.94;87.52;93729.25;5019045;28;20033;-83
2022/11/23 09:04:42;;;;;;;43.88;27.80;;;;;;;8.27;87.60;93789.91;5023666;28;20049;-81
2022/11/23 09:07:08;;;;;;;44.65;26.15;;;;;;;8.58;87.90;93825.28;5008903;28;20068;-80
2022/11/23 09:09:33;;;;;;;43.97;26.75;;;;;;;9.25;87.36;93904.88;5012633;28;20092;-81
2022/11/23 09:11:58;;;;;;;41.95;26.52;;;;;;;8.60;86.49;93794.06;5041062;28;20045;-80
2022/11/23 09:14:26;;;;;;;34.53;23.60;;;;;;;8.96;87.49;93835.66;5033093;28;20041;-81
2022/11/23 09:16:52;;;;;;;39.28;23.77;;;;;;;9.43;88.30;93897.91;5015806;28;20045;-80
2022/11/23 09:19:17;;;;;;;33.88;22.38;;;;;;;8.94;87.07;93819.31;5034629;28;20052;-81
2022/11/23 09:21:42;;;;;;;40.83;25.30;;;;;;;8.96;86.41;93817.94;5031026;28;20056;-81
2022/11/23 09:24:11;;;;;;;37.80;22.88;;;;;;;9.08;86.88;93820.09;5019755;28;20047;-80
2022/11/23 09:26:38;;;;;;;34.67;21.55;;;;;;;8.96;85.82;93782.78;5028044;28;20041;-81
2022/11/23 09:29:04;;;;;;;35.38;19.45;;;;;;;9.05;85.03;93808.22;5021443;28;20044;-81
2022/11/23 09:31:29;;;;;;;27.30;18.67;;;;;;;8.61;85.69;93750.72;5045822;28;20171;-80
2022/11/23 09:33:55;;;;;;;31.08;19.30;;;;;;;9.01;86.13;93801.97;5022656;28;20041;-80
2022/11/23 09:36:23;;;;;;;33.25;20.95;;;;;;;9.00;85.69;93794.34;5018931;28;20034;-80
2022/11/23 09:38:50;;;;;;;28.52;17.88;;;;;;;9.67;85.61;93883.34;5026291;28;20038;-81
2022/11/23 09:41:33;;;;;;;26.70;18.02;;;;;;;9.74;86.04;93875.00;5017209;28;20401;-81
2022/11/23 09:44:12;;;;;;;28.73;17.73;;;;;;;9.37;85.89;93831.09;5006900;28;20060;-82
2022/11/23 09:46:46;;;;;;;31.08;19.67;;;;;;;9.78;85.16;93881.25;5020822;28;20041;-82
2022/11/23 09:49:16;;;;;;;24.13;15.65;;;;;;;9.87;85.65;93883.97;5007335;28;20101;-82
2022/11/23 09:51:43;;;;;;;26.85;16.02;;;;;;;9.40;85.77;93811.97;4996803;28;20049;-81
2022/11/23 09:54:20;;;;;;;25.85;16.10;;;;;;;9.16;85.14;93766.47;5014715;28;20060;-82
2022/11/23 09:56:48;;;;;;;24.20;16.20;;;;;;;10.03;84.96;93882.53;5039275;28;20049;-81
2022/11/23 09:59:35;;;;;;;27.42;15.88;;;;;;;9.86;84.75;93840.03;5008482;28;20145;-81
2022/11/23 10:02:00;;;;;;;23.13;14.07;;;;;;;10.07;84.50;93860.44;5015338;28;20100;-82
2022/11/23 10:04:31;;;;;;;30.10;16.90;;;;;;;10.71;85.33;93876.09;5015357;28;20037;-81
2022/11/23 10:07:23;;;;;;;25.20;15.70;;;;;;;9.88;82.28;93690.38;5015798;28;20037;-80
2022/11/23 10:10:09;;;;;;;27.52;16.40;;;;;;;11.70;82.32;93802.94;5025232;28;20161;-82
2022/11/23 10:12:46;;;;;;;17.73;12.50;;;;;;;12.60;80.86;93878.19;5022122;28;20087;-81
2022/11/23 10:15:25;;;;;;;14.23;9.90;;;;;;;12.76;77.45;93874.72;5004428;28;20475;-80
2022/11/23 10:17:51;;;;;;;15.55;9.48;;;;;;;12.68;74.08;93862.22;5022247;28;20047;-81
2022/11/23 10:20:31;;;;;;;14.50;9.30;;;;;;;12.97;74.33;93845.50;5021663;28;20048;-82
2022/11/23 10:23:02;;;;;;;16.37;10.43;;;;;;;13.39;74.51;93830.47;5010100;28;20061;-81
2022/11/23 10:25:39;;;;;;;20.20;11.07;;;;;;;12.77;73.14;93791.16;5020703;28;20065;-81
2022/11/23 10:28:17;;;;;;;17.02;8.75;;;;;;;13.16;72.06;93825.75;5002864;28;20045;-83
2022/11/23 10:30:55;;;;;;;18.75;8.98;;;;;;;12.67;70.21;93786.19;5014191;28;20037;-83
2022/11/23 10:33:47;;;;;;;16.27;9.63;;;;;;;13.14;71.10;93864.09;5017557;28;20057;-82
2022/11/23 10:36:13;;;;;;;14.77;7.68;;;;;;;12.48;70.97;93785.03;4956775;28;20078;-82
2022/11/23 10:38:38;;;;;;;15.68;8.73;;;;;;;12.13;71.59;93755.88;4985431;28;20043;-82
2022/11/23 10:41:06;;;;;;;12.07;7.88;;;;;;;12.36;71.22;93807.72;4999837;28;20124;-81
2022/11/23 10:43:40;;;;;;;12.20;7.47;;;;;;;12.46;71.38;93856.34;5009504;28;20169;-81
2022/11/23 10:46:26;;;;;;;15.32;7.13;;;;;;;12.29;71.03;93860.59;4997490;28;20103;-81
2022/11/23 10:49:08;;;;;;;12.00;6.07;;;;;;;11.79;70.97;93798.44;5016718;28;20057;-81
2022/11/23 10:51:34;;;;;;;10.93;6.57;;;;;;;12.08;71.12;93853.59;5025343;28;20164;-81
2022/11/23 10:54:03;;;;;;;18.13;7.18;;;;;;;12.00;71.28;93855.16;5013271;28;20132;-81
2022/11/23 10:56:29;;;;;;;12.73;6.55;;;;;;;11.36;72.10;93771.88;5027507;28;20133;-82
2022/11/23 10:58:55;;;;;;;15.98;8.63;;;;;;;11.50;72.42;93828.25;5018825;28;20045;-81
2022/11/23 11:01:28;;;;;;;14.00;9.38;;;;;;;11.61;73.73;93848.88;4999243;28;20036;-81
2022/11/23 11:03:58;;;;;;;11.95;8.20;;;;;;;11.56;73.93;93854.34;5018007;28;20041;-81
2022/11/23 11:06:29;;;;;;;13.02;9.00;;;;;;;11.26;73.44;93822.59;5020553;28;20040;-81
2022/11/23 11:09:00;;;;;;;15.02;10.13;;;;;;;11.51;74.18;93865.13;5016215;28;20045;-81
2022/11/23 11:11:37;;;;;;;15.90;8.87;;;;;;;11.33;74.46;93826.38;5021982;28;20449;-82
2022/11/23 11:14:14;;;;;;;14.68;8.05;;;;;;;11.23;74.08;93806.19;5022007;28;21169;-82
2022/11/23 11:16:46;;;;;;;14.52;8.07;;;;;;;11.63;74.09;93851.22;5021177;28;20253;-81
2022/11/23 11:19:33;;;;;;;15.85;8.80;;;;;;;11.52;74.37;93834.81;5022949;28;20063;-82
2022/11/23 11:22:01;;;;;;;16.05;9.68;;;;;;;11.28;74.52;93799.19;5011284;28;20116;-82
2022/11/23 11:24:32;;;;;;;23.63;10.20;;;;;;;11.62;74.19;93844.34;5016057;28;20049;-83
2022/11/23 11:27:11;;;;;;;16.55;9.52;;;;;;;11.27;74.15;93784.38;4990107;28;20115;-81